sensor_id;sensor_type;location;lat;lon;timestamp;temperature;humidity
9941;DHT22;5009;50.656;7.188;2023-01-01T05:02:53;14.80;90.70
9941;DHT22;5009;50.656;7.188;2023-01-01T05:05:18;14.80;90.80
9941;DHT22;5009;50.656;7.188;2023-01-01T05:07:44;14.70;90.90
9941;DHT22;5009;50.656;7.188;2023-01-01T05:10:09;14.70;90.90
9941;DHT22;5009;50.656;7.188;2023-01-01T05:12:35;14.70;90.90
9941;DHT22;5009;50.656;7.188;2023-01-01T05:15:00;14.70;91.10
9941;DHT22;5009;50.656;7.188;2023-01-01T05:17:26;14.70;91.20
9941;DHT22;5009;50.656;7.188;2023-01-01T05:19:51;14.70;91.40
9941;DHT22;5009;50.656;7.188;2023-01-01T05:22:17;14.60;91.60
9941;DHT22;5009;50.656;7.188;2023-01-01T05:24:42;14.60;91.80
9941;DHT22;5009;50.656;7.188;2023-01-01T05:27:08;14.60;92.00
9941;DHT22;5009;50.656;7.188;2023-01-01T05:29:33;14.50;92.30
9941;DHT22;5009;50.656;7.188;2023-01-01T05:31:59;14.50;92.40
9941;DHT22;5009;50.656;7.188;2023-01-01T05:34:26;14.50;92.50
9941;DHT22;5009;50.656;7.188;2023-01-01T05:36:51;14.50;92.60
9941;DHT22;5009;50.656;7.188;2023-01-01T05:39:17;14.40;92.70
9941;DHT22;5009;50.656;7.188;2023-01-01T05:41:42;14.40;92.90
9941;DHT22;5009;50.656;7.188;2023-01-01T05:44:08;14.40;93.00
9941;DHT22;5009;50.656;7.188;2023-01-01T05:46:35;14.40;93.10
9941;DHT22;5009;50.656;7.188;2023-01-01T05:49:01;14.40;93.30
9941;DHT22;5009;50.656;7.188;2023-01-01T05:51:28;14.30;93.50
9941;DHT22;5009;50.656;7.188;2023-01-01T05:53:54;14.30;93.50
9941;DHT22;5009;50.656;7.188;2023-01-01T05:56:20;14.30;93.70
9941;DHT22;5009;50.656;7.188;2023-01-01T05:58:46;14.20;93.70
9941;DHT22;5009;50.656;7.188;2023-01-01T06:03:42;14.20;93.90
9941;DHT22;5009;50.656;7.188;2023-01-01T06:06:10;14.20;94.10
9941;DHT22;5009;50.656;7.188;2023-01-01T06:08:36;14.20;94.00
9941;DHT22;5009;50.656;7.188;2023-01-01T06:11:04;14.20;94.10
9941;DHT22;5009;50.656;7.188;2023-01-01T06:13:31;14.20;94.10
9941;DHT22;5009;50.656;7.188;2023-01-01T06:15:58;14.20;94.20
9941;DHT22;5009;50.656;7.188;2023-01-01T06:18:24;14.20;94.30
9941;DHT22;5009;50.656;7.188;2023-01-01T06:20:50;14.20;94.20
9941;DHT22;5009;50.656;7.188;2023-01-01T06:23:16;14.20;94.20
9941;DHT22;5009;50.656;7.188;2023-01-01T06:25:41;14.20;94.10
9941;DHT22;5009;50.656;7.188;2023-01-01T06:28:07;14.20;93.90
9941;DHT22;5009;50.656;7.188;2023-01-01T06:30:33;14.30;93.90
9941;DHT22;5009;50.656;7.188;2023-01-01T06:32:59;14.30;93.90
9941;DHT22;5009;50.656;7.188;2023-01-01T06:35:25;14.30;93.90
9941;DHT22;5009;50.656;7.188;2023-01-01T06:37:51;14.30;93.70
9941;DHT22;5009;50.656;7.188;2023-01-01T06:40:17;14.30;93.80
9941;DHT22;5009;50.656;7.188;2023-01-01T06:42:42;14.30;93.80
9941;DHT22;5009;50.656;7.188;2023-01-01T06:45:08;14.30;93.70
9941;DHT22;5009;50.656;7.188;2023-01-01T06:47:34;14.30;93.70
9941;DHT22;5009;50.656;7.188;2023-01-01T06:50:02;14.40;93.70
9941;DHT22;5009;50.656;7.188;2023-01-01T06:52:28;14.40;93.70
9941;DHT22;5009;50.656;7.188;2023-01-01T06:54:53;14.40;93.70
9941;DHT22;5009;50.656;7.188;2023-01-01T06:57:19;14.40;93.80
9941;DHT22;5009;50.656;7.188;2023-01-01T06:59:44;14.40;93.70
9941;DHT22;5009;50.656;7.188;2023-01-01T07:02:10;14.40;93.70
9941;DHT22;5009;50.656;7.188;2023-01-01T07:04:36;14.40;93.60
9941;DHT22;5009;50.656;7.188;2023-01-01T07:07:02;14.40;93.70
9941;DHT22;5009;50.656;7.188;2023-01-01T07:09:28;14.50;93.80
9941;DHT22;5009;50.656;7.188;2023-01-01T07:11:53;14.50;93.80
9941;DHT22;5009;50.656;7.188;2023-01-01T07:14:19;14.50;94.10
9941;DHT22;5009;50.656;7.188;2023-01-01T07:16:44;14.50;93.70
9941;DHT22;5009;50.656;7.188;2023-01-01T07:19:10;14.50;93.80
9941;DHT22;5009;50.656;7.188;2023-01-01T07:21:43;14.40;93.70
9941;DHT22;5009;50.656;7.188;2023-01-01T07:24:12;14.50;93.90
9941;DHT22;5009;50.656;7.188;2023-01-01T07:26:38;14.50;93.90
9941;DHT22;5009;50.656;7.188;2023-01-01T07:29:04;14.50;94.10
9941;DHT22;5009;50.656;7.188;2023-01-01T07:31:30;14.40;94.20
9941;DHT22;5009;50.656;7.188;2023-01-01T07:33:55;14.50;94.20
9941;DHT22;5009;50.656;7.188;2023-01-01T07:36:21;14.50;94.20
9941;DHT22;5009;50.656;7.188;2023-01-01T07:38:46;14.50;94.20
9941;DHT22;5009;50.656;7.188;2023-01-01T07:41:12;14.40;94.30
9941;DHT22;5009;50.656;7.188;2023-01-01T07:43:38;14.40;94.40
9941;DHT22;5009;50.656;7.188;2023-01-01T07:46:03;14.40;94.50
9941;DHT22;5009;50.656;7.188;2023-01-01T07:48:29;14.40;94.60
9941;DHT22;5009;50.656;7.188;2023-01-01T07:50:55;14.50;94.70
9941;DHT22;5009;50.656;7.188;2023-01-01T07:53:20;14.50;94.50
9941;DHT22;5009;50.656;7.188;2023-01-01T07:55:47;14.50;94.60
9941;DHT22;5009;50.656;7.188;2023-01-01T07:58:12;14.50;94.50
9941;DHT22;5009;50.656;7.188;2023-01-01T08:00:39;14.50;94.60
9941;DHT22;5009;50.656;7.188;2023-01-01T08:03:04;14.50;94.60
9941;DHT22;5009;50.656;7.188;2023-01-01T08:05:31;14.50;94.70
9941;DHT22;5009;50.656;7.188;2023-01-01T08:07:58;14.50;94.80
9941;DHT22;5009;50.656;7.188;2023-01-01T08:10:23;14.50;94.90
9941;DHT22;5009;50.656;7.188;2023-01-01T08:12:49;14.50;94.90
9941;DHT22;5009;50.656;7.188;2023-01-01T08:15:15;14.50;94.90
9941;DHT22;5009;50.656;7.188;2023-01-01T08:17:40;14.60;95.10
9941;DHT22;5009;50.656;7.188;2023-01-01T08:20:07;14.60;95.10
9941;DHT22;5009;50.656;7.188;2023-01-01T08:22:33;14.60;95.20
9941;DHT22;5009;50.656;7.188;2023-01-01T08:24:58;14.60;95.20
9941;DHT22;5009;50.656;7.188;2023-01-01T08:27:24;14.60;95.20
9941;DHT22;5009;50.656;7.188;2023-01-01T08:29:49;14.60;95.40
9941;DHT22;5009;50.656;7.188;2023-01-01T08:32:15;14.60;95.40
9941;DHT22;5009;50.656;7.188;2023-01-01T08:34:40;14.60;95.40
9941;DHT22;5009;50.656;7.188;2023-01-01T08:37:12;14.60;95.50
9941;DHT22;5009;50.656;7.188;2023-01-01T08:39:37;14.70;95.60
9941;DHT22;5009;50.656;7.188;2023-01-01T08:42:03;14.70;95.70
9941;DHT22;5009;50.656;7.188;2023-01-01T08:44:29;14.70;95.80
9941;DHT22;5009;50.656;7.188;2023-01-01T08:46:54;14.70;95.70
9941;DHT22;5009;50.656;7.188;2023-01-01T08:49:20;14.70;95.70
9941;DHT22;5009;50.656;7.188;2023-01-01T08:51:45;14.70;95.90
9941;DHT22;5009;50.656;7.188;2023-01-01T08:54:11;14.70;96.00
9941;DHT22;5009;50.656;7.188;2023-01-01T08:56:36;14.70;96.20
9941;DHT22;5009;50.656;7.188;2023-01-01T08:59:02;14.60;96.40
9941;DHT22;5009;50.656;7.188;2023-01-01T09:01:28;14.70;96.60
9941;DHT22;5009;50.656;7.188;2023-01-01T09:03:53;14.70;96.70
9941;DHT22;5009;50.656;7.188;2023-01-01T09:06:19;14.70;96.80
9941;DHT22;5009;50.656;7.188;2023-01-01T09:08:45;14.70;96.60
9941;DHT22;5009;50.656;7.188;2023-01-01T09:11:20;14.70;96.70
9941;DHT22;5009;50.656;7.188;2023-01-01T09:13:46;14.70;96.70
9941;DHT22;5009;50.656;7.188;2023-01-01T09:16:12;14.80;96.80
9941;DHT22;5009;50.656;7.188;2023-01-01T09:18:37;14.80;96.90
9941;DHT22;5009;50.656;7.188;2023-01-01T09:21:03;14.80;97.00
9941;DHT22;5009;50.656;7.188;2023-01-01T09:23:30;14.80;97.20
9941;DHT22;5009;50.656;7.188;2023-01-01T09:26:09;14.80;97.00
9941;DHT22;5009;50.656;7.188;2023-01-01T09:28:36;14.80;96.90
9941;DHT22;5009;50.656;7.188;2023-01-01T09:31:02;14.80;97.00
9941;DHT22;5009;50.656;7.188;2023-01-01T09:33:30;14.80;97.00
9941;DHT22;5009;50.656;7.188;2023-01-01T09:36:11;14.90;97.20
9941;DHT22;5009;50.656;7.188;2023-01-01T09:38:36;14.90;97.20
9941;DHT22;5009;50.656;7.188;2023-01-01T09:41:06;14.90;97.00
9941;DHT22;5009;50.656;7.188;2023-01-01T09:46:26;14.80;97.40
9941;DHT22;5009;50.656;7.188;2023-01-01T09:49:14;14.90;97.50
9941;DHT22;5009;50.656;7.188;2023-01-01T09:51:43;14.80;97.60
9941;DHT22;5009;50.656;7.188;2023-01-01T09:57:02;14.80;97.70
9941;DHT22;5009;50.656;7.188;2023-01-01T09:59:29;14.80;97.80
9941;DHT22;5009;50.656;7.188;2023-01-01T10:15:28;14.80;97.90
9941;DHT22;5009;50.656;7.188;2023-01-01T10:17:58;14.80;97.80
9941;DHT22;5009;50.656;7.188;2023-01-01T10:20:29;14.80;97.90
9941;DHT22;5009;50.656;7.188;2023-01-01T10:23:07;14.80;97.90
9941;DHT22;5009;50.656;7.188;2023-01-01T10:25:36;14.90;97.90
9941;DHT22;5009;50.656;7.188;2023-01-01T10:28:10;14.90;97.90
9941;DHT22;5009;50.656;7.188;2023-01-01T10:30:39;14.90;97.90
9941;DHT22;5009;50.656;7.188;2023-01-01T10:33:12;14.90;97.70
9941;DHT22;5009;50.656;7.188;2023-01-01T10:35:49;14.90;97.70
9941;DHT22;5009;50.656;7.188;2023-01-01T10:38:24;14.90;97.70
9941;DHT22;5009;50.656;7.188;2023-01-01T10:40:51;14.90;97.90
9941;DHT22;5009;50.656;7.188;2023-01-01T10:43:18;14.90;97.90
9941;DHT22;5009;50.656;7.188;2023-01-01T10:45:47;14.80;97.90
9941;DHT22;5009;50.656;7.188;2023-01-01T10:48:20;14.90;98.00
9941;DHT22;5009;50.656;7.188;2023-01-01T10:50:57;14.90;97.90
9941;DHT22;5009;50.656;7.188;2023-01-01T10:53:48;14.90;97.70
9941;DHT22;5009;50.656;7.188;2023-01-01T10:56:19;14.90;97.60
9941;DHT22;5009;50.656;7.188;2023-01-01T10:58:56;14.90;97.50
9941;DHT22;5009;50.656;7.188;2023-01-01T11:01:27;15.00;97.50
9941;DHT22;5009;50.656;7.188;2023-01-01T11:04:20;15.00;97.60
9941;DHT22;5009;50.656;7.188;2023-01-01T11:06:46;15.00;97.70
9941;DHT22;5009;50.656;7.188;2023-01-01T11:09:25;14.90;97.50
9941;DHT22;5009;50.656;7.188;2023-01-01T11:12:01;14.90;97.50
9941;DHT22;5009;50.656;7.188;2023-01-01T11:14:36;14.90;97.40
9941;DHT22;5009;50.656;7.188;2023-01-01T11:17:02;14.90;97.30
9941;DHT22;5009;50.656;7.188;2023-01-01T11:19:33;14.90;97.40
9941;DHT22;5009;50.656;7.188;2023-01-01T11:22:01;15.00;97.40
9941;DHT22;5009;50.656;7.188;2023-01-01T11:24:31;15.00;97.30
9941;DHT22;5009;50.656;7.188;2023-01-01T11:27:21;15.00;97.20
9941;DHT22;5009;50.656;7.188;2023-01-01T11:29:47;15.00;97.30
9941;DHT22;5009;50.656;7.188;2023-01-01T11:32:19;14.90;97.20
9941;DHT22;5009;50.656;7.188;2023-01-01T11:34:53;14.90;97.40
9941;DHT22;5009;50.656;7.188;2023-01-01T11:37:30;14.90;97.30
9941;DHT22;5009;50.656;7.188;2023-01-01T11:40:01;15.00;97.10
9941;DHT22;5009;50.656;7.188;2023-01-01T11:42:30;15.00;97.00
9941;DHT22;5009;50.656;7.188;2023-01-01T11:47:33;14.90;96.90
9941;DHT22;5009;50.656;7.188;2023-01-01T11:52:48;14.90;96.80
9941;DHT22;5009;50.656;7.188;2023-01-01T11:58:07;15.00;96.70
9941;DHT22;5009;50.656;7.188;2023-01-01T12:00:36;14.90;96.80
9941;DHT22;5009;50.656;7.188;2023-01-01T12:03:36;15.00;96.80
9941;DHT22;5009;50.656;7.188;2023-01-01T12:06:09;14.90;96.60
9941;DHT22;5009;50.656;7.188;2023-01-01T12:08:41;14.90;96.60
9941;DHT22;5009;50.656;7.188;2023-01-01T12:14:34;14.90;96.60
9941;DHT22;5009;50.656;7.188;2023-01-01T12:17:03;14.90;96.70
9941;DHT22;5009;50.656;7.188;2023-01-01T12:19:59;14.90;96.40
9941;DHT22;5009;50.656;7.188;2023-01-01T12:22:27;14.90;96.60
9941;DHT22;5009;50.656;7.188;2023-01-01T12:24:54;14.80;96.50
9941;DHT22;5009;50.656;7.188;2023-01-01T12:30:30;14.80;96.40
9941;DHT22;5009;50.656;7.188;2023-01-01T12:33:07;14.80;96.20
9941;DHT22;5009;50.656;7.188;2023-01-01T12:36:01;14.80;96.20
9941;DHT22;5009;50.656;7.188;2023-01-01T12:44:04;14.80;96.10
9941;DHT22;5009;50.656;7.188;2023-01-01T12:46:49;14.80;96.20
9941;DHT22;5009;50.656;7.188;2023-01-01T12:49:34;14.90;96.10
9941;DHT22;5009;50.656;7.188;2023-01-01T12:57:30;15.00;95.80
9941;DHT22;5009;50.656;7.188;2023-01-01T12:59:59;14.90;95.30
9941;DHT22;5009;50.656;7.188;2023-01-01T13:02:28;14.90;95.20
9941;DHT22;5009;50.656;7.188;2023-01-01T13:05:00;14.90;95.30
9941;DHT22;5009;50.656;7.188;2023-01-01T13:07:30;14.90;95.00
9941;DHT22;5009;50.656;7.188;2023-01-01T13:10:07;15.00;95.20
9941;DHT22;5009;50.656;7.188;2023-01-01T13:12:35;15.00;95.20
9941;DHT22;5009;50.656;7.188;2023-01-01T13:15:41;15.00;95.20
9941;DHT22;5009;50.656;7.188;2023-01-01T13:20:58;15.00;95.10
9941;DHT22;5009;50.656;7.188;2023-01-01T13:45:03;15.10;94.70
9941;DHT22;5009;50.656;7.188;2023-01-01T13:47:43;15.10;94.60
9941;DHT22;5009;50.656;7.188;2023-01-01T14:01:56;15.10;94.60
9941;DHT22;5009;50.656;7.188;2023-01-01T14:04:34;15.10;94.90
9941;DHT22;5009;50.656;7.188;2023-01-01T14:07:18;15.20;94.90
9941;DHT22;5009;50.656;7.188;2023-01-01T14:09:46;15.20;95.20
9941;DHT22;5009;50.656;7.188;2023-01-01T14:12:20;15.20;95.30
9941;DHT22;5009;50.656;7.188;2023-01-01T14:14:46;15.10;95.70
9941;DHT22;5009;50.656;7.188;2023-01-01T14:17:15;15.10;95.70
9941;DHT22;5009;50.656;7.188;2023-01-01T14:19:42;15.10;95.80
9941;DHT22;5009;50.656;7.188;2023-01-01T14:22:09;15.10;95.90
9941;DHT22;5009;50.656;7.188;2023-01-01T14:24:46;15.10;96.20
9941;DHT22;5009;50.656;7.188;2023-01-01T14:27:18;15.10;96.20
9941;DHT22;5009;50.656;7.188;2023-01-01T14:29:47;15.10;96.20
9941;DHT22;5009;50.656;7.188;2023-01-01T14:32:17;15.10;96.40
9941;DHT22;5009;50.656;7.188;2023-01-01T14:34:45;15.00;96.50
9941;DHT22;5009;50.656;7.188;2023-01-01T14:37:24;15.00;96.60
9941;DHT22;5009;50.656;7.188;2023-01-01T14:40:28;14.90;96.80
9941;DHT22;5009;50.656;7.188;2023-01-01T14:43:11;15.00;96.90
9941;DHT22;5009;50.656;7.188;2023-01-01T14:45:41;14.90;97.00
9941;DHT22;5009;50.656;7.188;2023-01-01T14:48:16;14.90;97.30
9941;DHT22;5009;50.656;7.188;2023-01-01T14:50:46;14.90;97.40
9941;DHT22;5009;50.656;7.188;2023-01-01T14:53:15;14.80;97.60
9941;DHT22;5009;50.656;7.188;2023-01-01T14:55:47;14.80;97.60
9941;DHT22;5009;50.656;7.188;2023-01-01T14:58:27;14.80;97.80
9941;DHT22;5009;50.656;7.188;2023-01-01T15:00:56;14.70;97.70
9941;DHT22;5009;50.656;7.188;2023-01-01T15:03:37;14.70;97.80
9941;DHT22;5009;50.656;7.188;2023-01-01T15:06:03;14.70;97.50
9941;DHT22;5009;50.656;7.188;2023-01-01T15:08:31;14.70;97.40
9941;DHT22;5009;50.656;7.188;2023-01-01T15:10:56;14.60;97.40
9941;DHT22;5009;50.656;7.188;2023-01-01T15:13:26;14.60;97.60
9941;DHT22;5009;50.656;7.188;2023-01-01T15:15:53;14.70;97.70
9941;DHT22;5009;50.656;7.188;2023-01-01T15:18:42;14.70;97.80
9941;DHT22;5009;50.656;7.188;2023-01-01T15:21:16;14.60;97.90
9941;DHT22;5009;50.656;7.188;2023-01-01T15:23:54;14.60;98.00
9941;DHT22;5009;50.656;7.188;2023-01-01T15:28:56;14.50;98.30
9941;DHT22;5009;50.656;7.188;2023-01-01T15:31:22;14.50;98.50
9941;DHT22;5009;50.656;7.188;2023-01-01T15:33:57;14.50;98.70
9941;DHT22;5009;50.656;7.188;2023-01-01T15:36:23;14.40;98.90
9941;DHT22;5009;50.656;7.188;2023-01-01T15:38:49;14.40;99.10
9941;DHT22;5009;50.656;7.188;2023-01-01T15:41:47;14.40;99.10
9941;DHT22;5009;50.656;7.188;2023-01-01T15:46:50;14.30;99.90
9941;DHT22;5009;50.656;7.188;2023-01-01T15:51:47;14.30;99.60
9941;DHT22;5009;50.656;7.188;2023-01-01T15:54:15;14.30;99.70
9941;DHT22;5009;50.656;7.188;2023-01-01T15:56:42;14.20;99.90
9941;DHT22;5009;50.656;7.188;2023-01-01T15:59:24;14.30;99.90
9941;DHT22;5009;50.656;7.188;2023-01-01T16:01:50;14.20;99.90
9941;DHT22;5009;50.656;7.188;2023-01-01T16:04:23;14.20;99.90
9941;DHT22;5009;50.656;7.188;2023-01-01T16:06:51;14.20;99.90
9941;DHT22;5009;50.656;7.188;2023-01-01T16:09:19;14.20;99.90
9941;DHT22;5009;50.656;7.188;2023-01-01T16:11:45;14.20;99.90
9941;DHT22;5009;50.656;7.188;2023-01-01T16:14:14;14.20;99.90
9941;DHT22;5009;50.656;7.188;2023-01-01T16:16:43;14.10;99.90
9941;DHT22;5009;50.656;7.188;2023-01-01T16:19:16;14.10;99.90
9941;DHT22;5009;50.656;7.188;2023-01-01T16:21:42;14.10;99.90
9941;DHT22;5009;50.656;7.188;2023-01-01T16:24:16;14.10;99.90
9941;DHT22;5009;50.656;7.188;2023-01-01T16:26:42;14.00;99.90
9941;DHT22;5009;50.656;7.188;2023-01-01T16:29:07;14.00;99.90
9941;DHT22;5009;50.656;7.188;2023-01-01T16:31:33;14.00;99.90
9941;DHT22;5009;50.656;7.188;2023-01-01T16:33:59;14.00;99.90
9941;DHT22;5009;50.656;7.188;2023-01-01T16:36:26;14.10;99.90
9941;DHT22;5009;50.656;7.188;2023-01-01T16:38:53;14.10;99.90
9941;DHT22;5009;50.656;7.188;2023-01-01T16:41:19;14.10;99.90
9941;DHT22;5009;50.656;7.188;2023-01-01T16:43:45;14.10;99.90
9941;DHT22;5009;50.656;7.188;2023-01-01T16:46:12;14.00;99.90
9941;DHT22;5009;50.656;7.188;2023-01-01T16:48:38;14.10;99.90
9941;DHT22;5009;50.656;7.188;2023-01-01T16:51:04;14.00;99.90
9941;DHT22;5009;50.656;7.188;2023-01-01T16:53:31;14.00;99.90
9941;DHT22;5009;50.656;7.188;2023-01-01T16:55:57;14.00;99.90
9941;DHT22;5009;50.656;7.188;2023-01-01T16:58:23;14.00;99.90
9941;DHT22;5009;50.656;7.188;2023-01-01T17:00:49;14.00;99.90
9941;DHT22;5009;50.656;7.188;2023-01-01T17:03:14;14.00;99.90
9941;DHT22;5009;50.656;7.188;2023-01-01T17:05:40;14.00;99.90
9941;DHT22;5009;50.656;7.188;2023-01-01T17:08:06;14.00;99.90
9941;DHT22;5009;50.656;7.188;2023-01-01T17:10:31;14.00;99.90
9941;DHT22;5009;50.656;7.188;2023-01-01T17:12:57;13.90;99.90
9941;DHT22;5009;50.656;7.188;2023-01-01T17:15:27;13.90;99.90
9941;DHT22;5009;50.656;7.188;2023-01-01T17:17:53;13.90;99.90
9941;DHT22;5009;50.656;7.188;2023-01-01T17:20:19;13.90;99.90
9941;DHT22;5009;50.656;7.188;2023-01-01T17:22:44;13.90;99.90
9941;DHT22;5009;50.656;7.188;2023-01-01T17:25:10;13.90;99.90
9941;DHT22;5009;50.656;7.188;2023-01-01T17:27:35;13.90;99.90
9941;DHT22;5009;50.656;7.188;2023-01-01T17:30:02;13.90;99.90
9941;DHT22;5009;50.656;7.188;2023-01-01T17:32:27;13.80;99.90
9941;DHT22;5009;50.656;7.188;2023-01-01T17:34:59;13.80;99.90
9941;DHT22;5009;50.656;7.188;2023-01-01T17:37:24;13.80;99.90
9941;DHT22;5009;50.656;7.188;2023-01-01T17:39:50;13.80;99.90
9941;DHT22;5009;50.656;7.188;2023-01-01T17:42:15;13.80;99.90
9941;DHT22;5009;50.656;7.188;2023-01-01T17:44:41;13.80;99.90
9941;DHT22;5009;50.656;7.188;2023-01-01T17:47:06;13.80;99.90
9941;DHT22;5009;50.656;7.188;2023-01-01T17:49:33;13.80;99.90
9941;DHT22;5009;50.656;7.188;2023-01-01T17:51:58;13.80;99.90
9941;DHT22;5009;50.656;7.188;2023-01-01T17:54:24;13.80;99.90
9941;DHT22;5009;50.656;7.188;2023-01-01T17:56:49;13.70;99.90
9941;DHT22;5009;50.656;7.188;2023-01-01T17:59:15;13.70;99.90
9941;DHT22;5009;50.656;7.188;2023-01-01T18:01:40;13.80;99.90
9941;DHT22;5009;50.656;7.188;2023-01-01T18:04:07;13.80;99.90
9941;DHT22;5009;50.656;7.188;2023-01-01T18:06:35;13.80;99.90
9941;DHT22;5009;50.656;7.188;2023-01-01T18:09:02;13.80;99.90
9941;DHT22;5009;50.656;7.188;2023-01-01T18:11:30;13.80;99.90
9941;DHT22;5009;50.656;7.188;2023-01-01T18:13:56;13.80;99.90
9941;DHT22;5009;50.656;7.188;2023-01-01T18:16:22;13.70;99.90
9941;DHT22;5009;50.656;7.188;2023-01-01T18:18:48;13.70;99.90
9941;DHT22;5009;50.656;7.188;2023-01-01T18:21:16;13.60;99.90
9941;DHT22;5009;50.656;7.188;2023-01-01T18:23:48;13.50;99.90
9941;DHT22;5009;50.656;7.188;2023-01-01T18:26:14;13.50;99.90
9941;DHT22;5009;50.656;7.188;2023-01-01T18:28:40;13.50;99.90
9941;DHT22;5009;50.656;7.188;2023-01-01T18:31:11;13.40;99.90
9941;DHT22;5009;50.656;7.188;2023-01-01T18:33:37;13.40;99.90
9941;DHT22;5009;50.656;7.188;2023-01-01T18:36:04;13.50;99.90
9941;DHT22;5009;50.656;7.188;2023-01-01T18:38:31;13.50;99.90
9941;DHT22;5009;50.656;7.188;2023-01-01T18:41:38;13.40;99.90
9941;DHT22;5009;50.656;7.188;2023-01-01T18:44:18;13.50;99.90
9941;DHT22;5009;50.656;7.188;2023-01-01T18:46:44;13.30;99.90
9941;DHT22;5009;50.656;7.188;2023-01-01T18:49:10;13.40;99.90
9941;DHT22;5009;50.656;7.188;2023-01-01T18:51:36;13.30;99.90
9941;DHT22;5009;50.656;7.188;2023-01-01T18:54:10;13.30;99.90
9941;DHT22;5009;50.656;7.188;2023-01-01T18:56:37;13.30;99.90
9941;DHT22;5009;50.656;7.188;2023-01-01T18:59:20;13.30;99.90
9941;DHT22;5009;50.656;7.188;2023-01-01T19:01:47;13.20;99.90
9941;DHT22;5009;50.656;7.188;2023-01-01T19:04:13;13.30;99.90
9941;DHT22;5009;50.656;7.188;2023-01-01T19:06:39;13.20;99.90
9941;DHT22;5009;50.656;7.188;2023-01-01T19:09:22;13.20;99.90
9941;DHT22;5009;50.656;7.188;2023-01-01T19:11:50;13.30;99.90
9941;DHT22;5009;50.656;7.188;2023-01-01T19:14:18;13.30;99.90
9941;DHT22;5009;50.656;7.188;2023-01-01T19:16:45;13.30;99.90
9941;DHT22;5009;50.656;7.188;2023-01-01T19:19:20;13.30;99.90
9941;DHT22;5009;50.656;7.188;2023-01-01T19:21:49;13.30;99.90
9941;DHT22;5009;50.656;7.188;2023-01-01T19:24:25;13.30;99.90
9941;DHT22;5009;50.656;7.188;2023-01-01T19:27:09;13.30;99.90
9941;DHT22;5009;50.656;7.188;2023-01-01T19:29:40;13.20;99.90
9941;DHT22;5009;50.656;7.188;2023-01-01T19:32:06;13.20;99.90
9941;DHT22;5009;50.656;7.188;2023-01-01T19:34:31;13.20;99.90
9941;DHT22;5009;50.656;7.188;2023-01-01T19:37:00;13.20;99.90
9941;DHT22;5009;50.656;7.188;2023-01-01T19:39:25;13.20;99.90
9941;DHT22;5009;50.656;7.188;2023-01-01T19:41:51;13.10;99.90
9941;DHT22;5009;50.656;7.188;2023-01-01T19:44:17;13.10;99.90
9941;DHT22;5009;50.656;7.188;2023-01-01T19:46:43;13.10;99.90
9941;DHT22;5009;50.656;7.188;2023-01-01T19:49:08;13.10;99.90
9941;DHT22;5009;50.656;7.188;2023-01-01T19:51:34;13.10;99.90
9941;DHT22;5009;50.656;7.188;2023-01-01T19:53:59;13.10;99.90
9941;DHT22;5009;50.656;7.188;2023-01-01T19:56:25;13.10;99.90
9941;DHT22;5009;50.656;7.188;2023-01-01T19:58:51;13.20;99.90
9941;DHT22;5009;50.656;7.188;2023-01-01T20:01:17;13.20;99.90
9941;DHT22;5009;50.656;7.188;2023-01-01T20:03:42;13.20;99.90
9941;DHT22;5009;50.656;7.188;2023-01-01T20:06:09;13.20;99.90
9941;DHT22;5009;50.656;7.188;2023-01-01T20:08:35;13.20;99.90
9941;DHT22;5009;50.656;7.188;2023-01-01T20:11:02;13.20;99.90
9941;DHT22;5009;50.656;7.188;2023-01-01T20:13:28;13.20;99.90
9941;DHT22;5009;50.656;7.188;2023-01-01T20:15:54;13.20;99.90
9941;DHT22;5009;50.656;7.188;2023-01-01T20:18:20;13.20;99.90
9941;DHT22;5009;50.656;7.188;2023-01-01T20:20:45;13.20;99.90
9941;DHT22;5009;50.656;7.188;2023-01-01T20:23:29;13.20;99.90
9941;DHT22;5009;50.656;7.188;2023-01-01T20:25:55;13.30;99.90
9941;DHT22;5009;50.656;7.188;2023-01-01T20:28:20;13.30;99.90
9941;DHT22;5009;50.656;7.188;2023-01-01T20:31:04;13.30;99.90
9941;DHT22;5009;50.656;7.188;2023-01-01T20:33:30;13.30;99.90
9941;DHT22;5009;50.656;7.188;2023-01-01T20:35:56;13.30;99.90
9941;DHT22;5009;50.656;7.188;2023-01-01T20:38:40;13.30;99.90
9941;DHT22;5009;50.656;7.188;2023-01-01T20:41:06;13.30;99.90
9941;DHT22;5009;50.656;7.188;2023-01-01T20:43:51;13.30;99.90
9941;DHT22;5009;50.656;7.188;2023-01-01T20:46:17;13.30;99.90
9941;DHT22;5009;50.656;7.188;2023-01-01T20:48:43;13.30;99.90
9941;DHT22;5009;50.656;7.188;2023-01-01T20:51:09;13.40;99.90
9941;DHT22;5009;50.656;7.188;2023-01-01T20:53:34;13.40;99.90
9941;DHT22;5009;50.656;7.188;2023-01-01T20:56:00;13.40;99.90
9941;DHT22;5009;50.656;7.188;2023-01-01T20:58:26;13.40;99.90
9941;DHT22;5009;50.656;7.188;2023-01-01T21:00:51;13.40;99.90
9941;DHT22;5009;50.656;7.188;2023-01-01T21:03:17;13.50;99.90
9941;DHT22;5009;50.656;7.188;2023-01-01T21:05:42;13.50;99.90
9941;DHT22;5009;50.656;7.188;2023-01-01T21:08:08;13.50;99.90
9941;DHT22;5009;50.656;7.188;2023-01-01T21:10:33;13.50;99.90
9941;DHT22;5009;50.656;7.188;2023-01-01T21:12:59;13.60;99.90
9941;DHT22;5009;50.656;7.188;2023-01-01T21:15:24;13.60;99.90
9941;DHT22;5009;50.656;7.188;2023-01-01T21:17:50;13.60;99.90
9941;DHT22;5009;50.656;7.188;2023-01-01T21:20:16;13.60;99.90
9941;DHT22;5009;50.656;7.188;2023-01-01T21:22:41;13.60;99.90
9941;DHT22;5009;50.656;7.188;2023-01-01T21:25:21;13.70;99.90
9941;DHT22;5009;50.656;7.188;2023-01-01T21:27:47;13.70;99.90
9941;DHT22;5009;50.656;7.188;2023-01-01T21:30:13;13.70;99.90
9941;DHT22;5009;50.656;7.188;2023-01-01T21:32:41;13.70;99.90
9941;DHT22;5009;50.656;7.188;2023-01-01T21:35:34;13.70;99.90
9941;DHT22;5009;50.656;7.188;2023-01-01T21:38:00;13.70;99.90
9941;DHT22;5009;50.656;7.188;2023-01-01T21:45:43;13.80;99.90
9941;DHT22;5009;50.656;7.188;2023-01-01T21:48:34;13.80;99.90
9941;DHT22;5009;50.656;7.188;2023-01-01T21:51:00;13.80;99.90
9941;DHT22;5009;50.656;7.188;2023-01-01T21:53:28;13.80;99.90
9941;DHT22;5009;50.656;7.188;2023-01-01T21:55:55;13.80;99.90
9941;DHT22;5009;50.656;7.188;2023-01-01T21:58:26;13.80;99.90
